createdAt,value
2023-05-07T00:00:57.634Z,6.67
2023-05-07T00:03:24.642Z,8.33
2023-05-07T00:05:52.561Z,8.07
2023-05-07T00:08:19.415Z,6.00
2023-05-07T00:10:47.320Z,6.73
2023-05-07T00:13:14.018Z,6.23
2023-05-07T00:15:40.655Z,5.93
2023-05-07T00:18:07.334Z,6.67
2023-05-07T00:20:36.121Z,5.87
2023-05-07T00:23:02.997Z,6.20
2023-05-07T00:25:29.570Z,6.47
2023-05-07T00:27:56.217Z,7.03
2023-05-07T00:30:22.887Z,7.57
2023-05-07T00:32:50.058Z,6.47
2023-05-07T00:35:16.728Z,6.37
2023-05-07T00:37:43.469Z,6.13
2023-05-07T00:40:10.655Z,6.23
2023-05-07T00:42:37.771Z,6.00
2023-05-07T00:45:04.752Z,5.83
2023-05-07T00:47:32.077Z,8.80
2023-05-07T00:49:59.689Z,6.30
2023-05-07T00:52:27.000Z,6.47
2023-05-07T00:54:54.291Z,6.23
2023-05-07T00:57:22.489Z,5.87
2023-05-07T00:59:49.702Z,7.77
2023-05-07T01:02:16.363Z,8.90
2023-05-07T01:04:43.061Z,5.80
2023-05-07T01:07:10.643Z,8.63
2023-05-07T01:09:37.933Z,7.53
2023-05-07T01:12:05.365Z,8.33
2023-05-07T01:14:33.973Z,6.33
2023-05-07T01:17:01.029Z,6.90
2023-05-07T01:19:29.559Z,6.00
2023-05-07T01:22:04.336Z,6.10
2023-05-07T01:24:32.683Z,7.20
2023-05-07T01:26:59.258Z,7.53
2023-05-07T01:29:25.849Z,6.23
2023-05-07T01:31:53.717Z,7.40
2023-05-07T01:34:23.200Z,6.13
2023-05-07T01:36:50.112Z,5.97
2023-05-07T01:39:18.019Z,6.13
2023-05-07T01:41:45.245Z,6.87
2023-05-07T01:44:14.354Z,7.73
2023-05-07T01:46:41.481Z,7.30
2023-05-07T01:49:08.726Z,5.70
2023-05-07T01:51:36.311Z,10.27
2023-05-07T01:54:02.920Z,6.50
2023-05-07T01:56:29.559Z,6.47
2023-05-07T01:58:56.525Z,5.93
2023-05-07T02:01:23.155Z,5.73
2023-05-07T02:03:50.611Z,7.63
2023-05-07T02:06:17.316Z,9.17
2023-05-07T02:08:44.188Z,7.33
2023-05-07T02:11:10.986Z,7.73
2023-05-07T02:13:37.611Z,6.77
2023-05-07T02:16:04.591Z,9.03
2023-05-07T02:18:31.495Z,8.40
2023-05-07T02:20:58.168Z,6.70
2023-05-07T02:23:24.844Z,7.00
2023-05-07T02:25:51.906Z,10.57
2023-05-07T02:28:18.554Z,6.50
2023-05-07T02:30:45.185Z,7.20
2023-05-07T02:33:13.556Z,6.07
2023-05-07T02:35:40.341Z,6.37
2023-05-07T02:38:07.041Z,6.17
2023-05-07T02:40:34.652Z,9.53
2023-05-07T02:43:01.296Z,6.33
2023-05-07T02:45:27.834Z,6.43
2023-05-07T02:47:54.574Z,7.93
2023-05-07T02:50:21.293Z,7.13
2023-05-07T02:52:48.995Z,8.53
2023-05-07T02:55:15.742Z,7.63
2023-05-07T02:57:42.347Z,8.97
2023-05-07T03:00:17.833Z,7.77
2023-05-07T03:02:45.446Z,7.30
2023-05-07T03:05:12.986Z,9.37
2023-05-07T03:07:39.838Z,7.05
2023-05-07T03:10:07.269Z,9.57
2023-05-07T03:12:33.869Z,7.30
2023-05-07T03:15:00.446Z,6.33
2023-05-07T03:17:27.087Z,8.17
2023-05-07T03:19:53.767Z,8.43
2023-05-07T03:22:20.365Z,7.13
2023-05-07T03:24:46.970Z,7.00
2023-05-07T03:27:13.574Z,7.60
2023-05-07T03:29:40.371Z,7.13
2023-05-07T03:32:07.414Z,6.80
2023-05-07T03:34:34.029Z,7.23
2023-05-07T03:37:00.862Z,7.65
2023-05-07T03:39:27.495Z,7.40
2023-05-07T03:41:54.166Z,8.02
2023-05-07T03:44:20.997Z,7.50
2023-05-07T03:46:47.648Z,8.57
2023-05-07T03:49:14.534Z,8.13
2023-05-07T03:51:41.144Z,7.43
2023-05-07T03:54:08.182Z,7.13
2023-05-07T03:56:34.896Z,8.77
2023-05-07T03:59:02.583Z,7.87
2023-05-07T04:01:29.253Z,7.57
2023-05-07T04:03:56.413Z,7.53
2023-05-07T04:06:23.145Z,6.50
2023-05-07T04:08:49.755Z,8.30
2023-05-07T04:11:16.451Z,7.23
2023-05-07T04:13:43.088Z,9.30
2023-05-07T04:16:09.724Z,6.90
2023-05-07T04:18:36.374Z,7.43
2023-05-07T04:21:02.965Z,7.43
2023-05-07T04:23:29.532Z,6.73
2023-05-07T04:25:56.188Z,8.43
2023-05-07T04:28:22.820Z,6.90
2023-05-07T04:30:49.408Z,7.50
2023-05-07T04:33:19.285Z,8.23
2023-05-07T04:35:45.881Z,8.33
2023-05-07T04:38:12.499Z,6.73
2023-05-07T04:40:39.897Z,7.43
2023-05-07T04:43:06.695Z,6.23
2023-05-07T04:45:33.490Z,9.52
2023-05-07T04:48:00.319Z,6.00
2023-05-07T04:50:27.518Z,5.43
2023-05-07T04:52:54.245Z,6.43
2023-05-07T04:55:21.079Z,5.73
2023-05-07T04:57:48.113Z,5.30
2023-05-07T05:00:20.435Z,6.00
2023-05-07T05:02:47.223Z,5.73
2023-05-07T05:05:13.846Z,6.07
2023-05-07T05:07:40.758Z,6.33
2023-05-07T05:10:07.642Z,5.87
2023-05-07T05:12:34.265Z,7.33
2023-05-07T05:15:00.851Z,6.57
2023-05-07T05:17:27.502Z,6.43
2023-05-07T05:19:54.074Z,6.63
2023-05-07T05:22:22.020Z,6.77
2023-05-07T05:24:48.819Z,5.63
2023-05-07T05:27:15.462Z,6.23
2023-05-07T05:29:42.046Z,5.63
2023-05-07T05:32:08.680Z,6.20
2023-05-07T05:34:35.399Z,5.77
2023-05-07T05:37:02.452Z,5.60
2023-05-07T05:39:29.020Z,5.57
2023-05-07T05:41:58.398Z,7.70
2023-05-07T05:44:26.303Z,6.03
2023-05-07T05:46:56.095Z,6.60
2023-05-07T05:49:23.457Z,6.30
2023-05-07T05:51:50.539Z,6.07
2023-05-07T05:54:17.575Z,6.47
2023-05-07T05:56:45.919Z,5.73
2023-05-07T05:59:13.322Z,6.40
2023-05-07T06:01:40.539Z,6.13
2023-05-07T06:04:07.611Z,5.70
2023-05-07T06:06:34.654Z,5.57
2023-05-07T06:09:01.831Z,5.53
2023-05-07T06:11:28.912Z,5.70
2023-05-07T06:13:55.990Z,5.30
2023-05-07T06:16:23.094Z,5.30
2023-05-07T06:18:50.202Z,6.10
2023-05-07T06:21:17.208Z,7.57
2023-05-07T06:23:44.297Z,6.00
2023-05-07T06:26:11.395Z,6.43
2023-05-07T06:28:38.583Z,7.67
2023-05-07T06:31:19.043Z,5.17
2023-05-07T06:33:46.379Z,6.00
2023-05-07T06:36:13.479Z,6.17
2023-05-07T06:38:40.634Z,5.97
2023-05-07T06:41:08.021Z,5.90
2023-05-07T06:43:35.181Z,8.07
2023-05-07T06:46:02.360Z,6.00
2023-05-07T06:48:29.402Z,5.93
2023-05-07T06:50:58.467Z,5.10
2023-05-07T06:53:26.787Z,5.40
2023-05-07T06:55:53.836Z,5.90
2023-05-07T06:58:20.833Z,5.37
2023-05-07T07:00:47.856Z,4.80
2023-05-07T07:03:14.973Z,4.43
2023-05-07T07:05:42.839Z,4.60
2023-05-07T07:08:09.901Z,5.93
2023-05-07T07:10:37.015Z,5.80
2023-05-07T07:13:04.150Z,4.60
2023-05-07T07:15:31.253Z,5.13
2023-05-07T07:17:58.429Z,6.67
2023-05-07T07:20:25.901Z,6.63
2023-05-07T07:22:52.924Z,4.03
2023-05-07T07:25:19.967Z,4.10
2023-05-07T07:27:47.446Z,6.53
2023-05-07T07:30:14.602Z,4.83
2023-05-07T07:32:41.785Z,5.30
2023-05-07T07:35:09.150Z,5.97
2023-05-07T07:37:36.389Z,5.17
2023-05-07T07:40:04.448Z,5.07
2023-05-07T07:42:31.498Z,5.20
2023-05-07T07:44:58.579Z,4.27
2023-05-07T07:47:25.737Z,6.60
2023-05-07T07:49:52.774Z,5.37
2023-05-07T07:52:20.233Z,4.40
2023-05-07T07:54:47.315Z,4.07
2023-05-07T07:57:14.369Z,3.90
2023-05-07T07:59:41.411Z,5.37
2023-05-07T08:02:08.475Z,4.47
2023-05-07T08:04:36.500Z,4.10
2023-05-07T08:07:03.682Z,6.33
2023-05-07T08:09:30.789Z,5.13
2023-05-07T08:11:57.848Z,4.77
2023-05-07T08:14:24.968Z,5.20
2023-05-07T08:16:52.057Z,3.97
2023-05-07T08:19:19.094Z,4.50
2023-05-07T08:21:46.574Z,4.40
2023-05-07T08:24:13.744Z,4.43
2023-05-07T08:26:41.012Z,4.30
2023-05-07T08:29:08.440Z,8.23
2023-05-07T08:31:35.551Z,4.60
2023-05-07T08:34:02.909Z,4.17
2023-05-07T08:36:30.001Z,4.10
2023-05-07T08:38:57.068Z,4.87
2023-05-07T08:41:24.214Z,5.37
2023-05-07T08:43:52.155Z,6.03
2023-05-07T08:46:20.544Z,4.30
2023-05-07T08:48:51.162Z,4.50
2023-05-07T08:51:19.631Z,4.07
2023-05-07T08:53:49.393Z,6.17
2023-05-07T08:56:16.880Z,4.97
2023-05-07T08:58:44.330Z,4.90
2023-05-07T09:01:14.191Z,6.60
2023-05-07T09:03:41.724Z,4.03
2023-05-07T09:06:08.951Z,4.07
2023-05-07T09:08:37.862Z,4.73
2023-05-07T09:11:05.360Z,3.40
2023-05-07T09:13:32.401Z,4.50
2023-05-07T09:15:59.441Z,6.13
2023-05-07T09:18:26.719Z,5.00
2023-05-07T09:20:54.014Z,8.13
2023-05-07T09:23:21.877Z,3.37
2023-05-07T09:25:48.935Z,3.50
2023-05-07T09:28:16.164Z,4.73
2023-05-07T09:30:43.203Z,5.17
2023-05-07T09:33:10.532Z,3.50
2023-05-07T09:35:39.328Z,3.30
2023-05-07T09:38:06.313Z,5.27
2023-05-07T09:40:33.338Z,4.83
2023-05-07T09:43:11.177Z,3.50
2023-05-07T09:45:39.464Z,5.27
2023-05-07T09:48:07.917Z,7.07
2023-05-07T09:50:37.756Z,5.03
2023-05-07T09:53:05.944Z,3.33
2023-05-07T09:55:33.001Z,2.70
2023-05-07T09:58:00.388Z,5.70
2023-05-07T10:00:28.488Z,3.33
2023-05-07T10:02:58.037Z,4.77
2023-05-07T10:05:25.665Z,4.53
2023-05-07T10:07:52.806Z,3.20
2023-05-07T10:10:20.181Z,5.70
2023-05-07T10:12:47.777Z,4.87
2023-05-07T10:15:15.588Z,3.90
2023-05-07T10:17:43.124Z,3.20
2023-05-07T10:20:10.586Z,5.70
2023-05-07T10:22:45.657Z,2.70
2023-05-07T10:25:16.467Z,3.83
2023-05-07T10:27:44.498Z,3.63
2023-05-07T10:30:27.497Z,5.27
2023-05-07T10:33:06.492Z,2.87
2023-05-07T10:35:39.418Z,2.97
2023-05-07T10:38:06.628Z,3.08
2023-05-07T10:40:33.927Z,4.28
2023-05-07T10:43:02.160Z,4.32
2023-05-07T10:45:29.861Z,3.88
2023-05-07T10:48:27.300Z,3.05
2023-05-07T10:51:16.564Z,3.00
2023-05-07T10:53:43.916Z,4.37
2023-05-07T10:56:14.224Z,3.20
2023-05-07T10:58:41.346Z,4.97
2023-05-07T11:01:08.390Z,3.67
2023-05-07T11:03:36.019Z,4.20
2023-05-07T11:06:16.430Z,3.63
2023-05-07T11:08:52.461Z,4.57
2023-05-07T11:11:20.544Z,2.83
2023-05-07T11:13:48.524Z,4.23
2023-05-07T11:16:19.934Z,4.50
2023-05-07T11:18:48.672Z,2.60
2023-05-07T11:21:33.067Z,8.23
2023-05-07T11:24:00.869Z,4.13
2023-05-07T11:26:28.759Z,4.63
2023-05-07T11:28:55.996Z,3.43
2023-05-07T11:31:24.963Z,4.47
2023-05-07T11:33:53.671Z,4.00
2023-05-07T11:36:21.774Z,4.43
2023-05-07T11:38:48.907Z,4.17
2023-05-07T11:41:17.100Z,4.33
2023-05-07T11:43:59.204Z,3.50
2023-05-07T11:46:26.395Z,5.87
2023-05-07T11:48:53.684Z,3.20
2023-05-07T11:51:21.966Z,5.93
2023-05-07T11:53:49.302Z,4.53
2023-05-07T11:56:17.792Z,4.30
2023-05-07T11:58:45.853Z,7.27
2023-05-07T12:01:14.293Z,3.87
2023-05-07T12:03:43.625Z,4.77
2023-05-07T12:06:12.028Z,5.60
2023-05-07T12:08:40.053Z,4.00
2023-05-07T12:11:12.356Z,4.47
2023-05-07T12:13:39.528Z,2.87
2023-05-07T12:16:07.613Z,4.93
2023-05-07T12:18:35.380Z,6.07
2023-05-07T12:21:02.706Z,2.93
2023-05-07T12:23:30.803Z,3.80
2023-05-07T12:25:58.055Z,3.75
2023-05-07T12:28:25.075Z,4.07
2023-05-07T12:30:53.132Z,3.53
2023-05-07T12:33:22.580Z,6.03
2023-05-07T12:35:49.597Z,4.73
2023-05-07T12:38:18.241Z,4.60
2023-05-07T12:40:46.491Z,4.10
2023-05-07T12:43:23.824Z,4.50
2023-05-07T12:45:51.689Z,3.70
2023-05-07T12:48:19.943Z,4.80
2023-05-07T12:50:49.720Z,5.33
2023-05-07T12:53:16.771Z,4.33
2023-05-07T12:55:57.763Z,3.57
2023-05-07T12:58:28.851Z,5.57
2023-05-07T13:01:00.435Z,4.13
2023-05-07T13:03:32.870Z,5.20
2023-05-07T13:06:02.528Z,4.87
2023-05-07T13:08:34.234Z,2.10
2023-05-07T13:11:04.524Z,5.23
2023-05-07T13:13:36.496Z,2.97
2023-05-07T13:16:04.884Z,3.43
2023-05-07T13:18:32.877Z,2.77
2023-05-07T13:21:00.311Z,4.33
2023-05-07T13:23:27.346Z,6.87
2023-05-07T13:25:54.945Z,4.70
2023-05-07T13:28:22.105Z,2.40
2023-05-07T13:30:49.163Z,5.87
2023-05-07T13:33:16.938Z,3.17
2023-05-07T13:35:43.543Z,5.03
2023-05-07T13:38:10.287Z,4.37
2023-05-07T13:40:36.909Z,4.50
2023-05-07T13:43:03.575Z,3.57
2023-05-07T13:45:30.783Z,4.95
2023-05-07T13:47:58.400Z,5.80
2023-05-07T13:50:25.434Z,4.60
2023-05-07T13:52:52.082Z,3.33
2023-05-07T13:55:19.810Z,3.77
2023-05-07T13:57:46.928Z,3.63
2023-05-07T14:00:15.390Z,3.50
2023-05-07T14:02:42.214Z,3.00
2023-05-07T14:05:10.662Z,2.50
2023-05-07T14:07:37.520Z,3.90
2023-05-07T14:10:04.892Z,2.67
2023-05-07T14:12:33.500Z,2.90
2023-05-07T14:15:00.641Z,3.83
2023-05-07T14:17:28.024Z,2.17
2023-05-07T14:19:55.398Z,2.37
2023-05-07T14:22:25.856Z,2.70
2023-05-07T14:25:05.414Z,3.05
2023-05-07T14:27:32.966Z,2.57
2023-05-07T14:29:59.615Z,4.03
2023-05-07T14:32:26.272Z,2.80
2023-05-07T14:34:52.920Z,3.23
2023-05-07T14:37:20.839Z,2.90
2023-05-07T14:39:49.815Z,3.93
2023-05-07T14:42:16.794Z,3.40
2023-05-07T14:44:43.451Z,2.50
2023-05-07T14:47:10.001Z,3.63
2023-05-07T14:49:36.657Z,4.13
2023-05-07T14:52:03.431Z,3.27
2023-05-07T14:54:30.176Z,3.53
2023-05-07T14:56:56.880Z,2.73
2023-05-07T14:59:25.820Z,2.85
2023-05-07T15:01:52.631Z,2.93
2023-05-07T15:04:19.766Z,2.80
2023-05-07T15:06:47.409Z,2.60
2023-05-07T15:09:14.407Z,4.20
2023-05-07T15:11:40.966Z,3.20
2023-05-07T15:14:07.567Z,3.20
2023-05-07T15:16:34.996Z,4.27
2023-05-07T15:19:01.681Z,5.67
2023-05-07T15:21:28.412Z,4.67
2023-05-07T15:23:55.131Z,6.20
2023-05-07T15:26:21.934Z,4.03
2023-05-07T15:28:48.539Z,4.23
2023-05-07T15:31:17.411Z,5.97
2023-05-07T15:33:44.152Z,5.67
2023-05-07T15:36:11.056Z,4.97
2023-05-07T15:38:37.642Z,4.03
2023-05-07T15:41:04.618Z,5.93
2023-05-07T15:43:31.417Z,4.90
2023-05-07T15:45:58.207Z,5.13
2023-05-07T15:48:25.206Z,5.10
2023-05-07T15:50:51.811Z,3.93
2023-05-07T15:53:18.414Z,4.77
2023-05-07T15:55:45.840Z,3.57
2023-05-07T15:58:13.759Z,4.23
2023-05-07T16:00:41.656Z,4.57
2023-05-07T16:03:08.756Z,3.87
2023-05-07T16:05:35.591Z,4.83
2023-05-07T16:08:02.246Z,7.60
2023-05-07T16:10:28.892Z,4.32
2023-05-07T16:12:55.674Z,4.70
2023-05-07T16:15:22.377Z,4.80
2023-05-07T16:17:49.753Z,4.50
2023-05-07T16:20:19.816Z,5.80
2023-05-07T16:22:46.763Z,4.40
2023-05-07T16:25:14.777Z,4.83
2023-05-07T16:27:41.523Z,8.07
2023-05-07T16:30:08.802Z,6.47
2023-05-07T16:32:36.252Z,46.77
2023-05-07T16:35:03.476Z,44.20
2023-05-07T16:37:30.190Z,6.83
2023-05-07T16:39:56.817Z,6.37
2023-05-07T16:42:23.399Z,4.87
2023-05-07T16:44:50.011Z,4.30
2023-05-07T16:47:16.615Z,4.20
2023-05-07T16:49:43.206Z,23.23
2023-05-07T16:52:09.761Z,16.83
2023-05-07T16:54:37.192Z,5.85
2023-05-07T16:57:03.885Z,5.87
2023-05-07T16:59:33.216Z,4.30
2023-05-07T17:01:59.891Z,4.00
2023-05-07T17:04:26.918Z,7.17
2023-05-07T17:06:53.672Z,5.47
2023-05-07T17:09:20.365Z,4.27
2023-05-07T17:11:46.949Z,4.53
2023-05-07T17:14:13.536Z,4.07
2023-05-07T17:16:40.417Z,3.93
2023-05-07T17:19:07.138Z,4.47
2023-05-07T17:21:33.763Z,5.23
2023-05-07T17:24:00.400Z,4.75
2023-05-07T17:26:27.853Z,5.37
2023-05-07T17:28:54.542Z,4.93
2023-05-07T17:31:21.207Z,4.43
2023-05-07T17:33:47.807Z,3.80
2023-05-07T17:36:14.802Z,3.70
2023-05-07T17:38:41.549Z,4.10
2023-05-07T17:41:08.131Z,4.80
2023-05-07T17:43:34.719Z,3.83
2023-05-07T17:46:01.332Z,5.53
2023-05-07T17:48:27.924Z,3.30
2023-05-07T17:51:00.244Z,4.17
2023-05-07T17:53:28.207Z,6.77
2023-05-07T17:55:54.800Z,4.27
2023-05-07T17:58:22.516Z,4.63
2023-05-07T18:00:49.086Z,6.97
2023-05-07T18:03:15.819Z,4.27
2023-05-07T18:05:42.618Z,3.83
2023-05-07T18:08:10.162Z,4.45
2023-05-07T18:10:38.004Z,4.40
2023-05-07T18:13:04.645Z,4.10
2023-05-07T18:15:31.355Z,4.20
2023-05-07T18:17:57.980Z,4.63
2023-05-07T18:20:24.609Z,5.70
2023-05-07T18:22:51.397Z,4.77
2023-05-07T18:25:18.219Z,4.70
2023-05-07T18:27:44.859Z,6.30
2023-05-07T18:30:12.262Z,4.63
2023-05-07T18:32:39.188Z,5.20
2023-05-07T18:35:06.261Z,4.80
2023-05-07T18:37:33.656Z,5.10
2023-05-07T18:40:04.014Z,5.90
2023-05-07T18:42:31.609Z,5.57
2023-05-07T18:44:59.444Z,5.23
2023-05-07T18:47:26.137Z,5.00
2023-05-07T18:49:52.858Z,4.57
2023-05-07T18:52:22.016Z,5.10
2023-05-07T18:54:48.673Z,4.40
2023-05-07T18:57:16.606Z,5.97
2023-05-07T18:59:44.166Z,4.67
2023-05-07T19:02:13.825Z,4.93
2023-05-07T19:04:40.975Z,5.57
2023-05-07T19:07:07.758Z,7.07
2023-05-07T19:09:34.414Z,4.97
2023-05-07T19:12:02.014Z,5.30
2023-05-07T19:14:28.543Z,4.70
2023-05-07T19:16:55.879Z,5.83
2023-05-07T19:19:22.716Z,7.93
2023-05-07T19:21:49.371Z,5.20
2023-05-07T19:24:16.744Z,4.93
2023-05-07T19:26:43.415Z,5.37
2023-05-07T19:29:17.651Z,5.17
2023-05-07T19:31:45.857Z,7.20
2023-05-07T19:34:13.915Z,5.50
2023-05-07T19:36:40.909Z,5.60
2023-05-07T19:39:07.520Z,5.27
2023-05-07T19:41:34.266Z,6.30
2023-05-07T19:44:00.894Z,5.93
2023-05-07T19:46:27.600Z,7.20
2023-05-07T19:48:54.327Z,5.50
2023-05-07T19:51:21.016Z,6.60
2023-05-07T19:53:47.819Z,7.50
2023-05-07T19:56:15.728Z,6.47
2023-05-07T19:58:42.395Z,5.87
2023-05-07T20:01:09.708Z,6.43
2023-05-07T20:03:36.522Z,7.27
2023-05-07T20:06:03.453Z,7.67
2023-05-07T20:08:30.142Z,7.87
2023-05-07T20:10:58.271Z,7.03
2023-05-07T20:13:26.772Z,9.50
2023-05-07T20:16:00.460Z,7.63
2023-05-07T20:18:28.659Z,7.93
2023-05-07T20:20:55.509Z,7.83
2023-05-07T20:23:22.313Z,7.57
2023-05-07T20:25:50.192Z,8.00
2023-05-07T20:28:17.001Z,8.00
2023-05-07T20:30:43.601Z,9.40
2023-05-07T20:33:10.519Z,9.00
2023-05-07T20:35:37.636Z,7.60
2023-05-07T20:38:04.255Z,8.00
2023-05-07T20:40:33.701Z,8.53
2023-05-07T20:43:01.181Z,8.73
2023-05-07T20:45:27.786Z,10.00
2023-05-07T20:47:54.569Z,8.87
2023-05-07T20:50:26.914Z,12.87
2023-05-07T20:52:53.784Z,11.80
2023-05-07T20:55:20.492Z,10.43
2023-05-07T20:57:47.234Z,14.33
2023-05-07T21:00:15.752Z,9.97
2023-05-07T21:02:43.549Z,11.23
2023-05-07T21:05:10.171Z,10.37
2023-05-07T21:07:37.000Z,10.83
2023-05-07T21:10:03.783Z,9.40
2023-05-07T21:12:30.384Z,10.97
2023-05-07T21:14:57.471Z,9.53
2023-05-07T21:17:24.180Z,10.40
2023-05-07T21:19:52.134Z,9.73
2023-05-07T21:22:18.719Z,10.47
2023-05-07T21:24:45.352Z,9.07
2023-05-07T21:27:11.961Z,9.90
2023-05-07T21:29:38.622Z,10.93
2023-05-07T21:32:05.587Z,10.23
2023-05-07T21:34:33.247Z,10.10
2023-05-07T21:36:59.901Z,11.57
2023-05-07T21:39:26.545Z,11.00
2023-05-07T21:41:53.474Z,10.37
2023-05-07T21:44:20.075Z,9.60
2023-05-07T21:46:46.689Z,9.87
2023-05-07T21:49:13.322Z,10.87
2023-05-07T21:51:40.185Z,10.47
2023-05-07T21:54:06.889Z,10.13
2023-05-07T21:56:33.679Z,9.63
2023-05-07T21:59:00.334Z,11.13
2023-05-07T22:01:26.990Z,10.30
2023-05-07T22:03:54.301Z,10.90
2023-05-07T22:06:22.418Z,10.77
2023-05-07T22:08:50.096Z,9.83
2023-05-07T22:11:17.057Z,9.90
2023-05-07T22:13:43.781Z,9.90
2023-05-07T22:16:10.537Z,9.97
2023-05-07T22:18:37.300Z,9.93
2023-05-07T22:21:04.600Z,10.70
2023-05-07T22:23:31.292Z,10.87
2023-05-07T22:25:58.323Z,11.40
2023-05-07T22:28:24.957Z,11.53
2023-05-07T22:30:51.615Z,11.43
2023-05-07T22:33:18.198Z,12.80
2023-05-07T22:35:44.754Z,13.83
2023-05-07T22:38:11.396Z,13.20
2023-05-07T22:40:37.981Z,13.13
2023-05-07T22:43:04.548Z,14.07
2023-05-07T22:45:31.232Z,12.70
2023-05-07T22:47:57.948Z,14.47
2023-05-07T22:50:24.557Z,14.17
2023-05-07T22:52:51.139Z,15.33
2023-05-07T22:55:17.899Z,15.27
2023-05-07T22:57:44.504Z,15.83
2023-05-07T23:00:12.214Z,15.47
2023-05-07T23:02:39.190Z,16.53
2023-05-07T23:05:06.107Z,16.30
2023-05-07T23:07:32.701Z,18.95
2023-05-07T23:09:59.279Z,16.43
2023-05-07T23:12:25.888Z,15.77
2023-05-07T23:14:52.488Z,17.70
2023-05-07T23:17:19.118Z,18.13
2023-05-07T23:19:45.877Z,21.40
2023-05-07T23:22:12.640Z,20.30
2023-05-07T23:24:39.459Z,24.13
2023-05-07T23:27:07.226Z,25.87
2023-05-07T23:29:34.381Z,24.90
2023-05-07T23:32:01.773Z,24.47
2023-05-07T23:34:28.410Z,23.57
2023-05-07T23:36:55.069Z,24.67
2023-05-07T23:39:21.703Z,24.37
2023-05-07T23:41:48.331Z,28.70
2023-05-07T23:44:16.509Z,26.20
2023-05-07T23:46:44.534Z,24.73
2023-05-07T23:49:11.497Z,25.73
2023-05-07T23:51:38.231Z,23.60
2023-05-07T23:54:05.114Z,26.80
2023-05-07T23:56:31.825Z,28.70
2023-05-07T23:58:58.488Z,29.50
